sensor_id;sensor_type;location;lat;lon;timestamp;P1;durP1;ratioP1;P2;durP2;ratioP2
14528;SDS011;7351;51.194;4.098;2022-07-22T00:01:18;9.70;;;4.97;;
14528;SDS011;7351;51.194;4.098;2022-07-22T00:03:45;7.77;;;4.73;;
14528;SDS011;7351;51.194;4.098;2022-07-22T00:06:12;12.07;;;4.50;;
14528;SDS011;7351;51.194;4.098;2022-07-22T00:08:40;12.33;;;4.60;;
14528;SDS011;7351;51.194;4.098;2022-07-22T00:11:07;13.10;;;5.53;;
14528;SDS011;7351;51.194;4.098;2022-07-22T00:13:35;12.03;;;4.97;;
14528;SDS011;7351;51.194;4.098;2022-07-22T00:16:02;12.63;;;5.80;;
14528;SDS011;7351;51.194;4.098;2022-07-22T00:18:29;14.03;;;5.73;;
14528;SDS011;7351;51.194;4.098;2022-07-22T00:20:56;17.70;;;6.30;;
14528;SDS011;7351;51.194;4.098;2022-07-22T00:23:23;13.40;;;6.63;;
14528;SDS011;7351;51.194;4.098;2022-07-22T00:25:51;11.10;;;6.37;;
14528;SDS011;7351;51.194;4.098;2022-07-22T00:28:18;14.47;;;5.53;;
14528;SDS011;7351;51.194;4.098;2022-07-22T00:30:45;9.67;;;4.50;;
14528;SDS011;7351;51.194;4.098;2022-07-22T00:33:12;7.80;;;5.63;;
14528;SDS011;7351;51.194;4.098;2022-07-22T00:35:39;14.00;;;5.97;;
14528;SDS011;7351;51.194;4.098;2022-07-22T00:38:06;14.30;;;5.70;;
14528;SDS011;7351;51.194;4.098;2022-07-22T00:40:33;12.53;;;6.47;;
14528;SDS011;7351;51.194;4.098;2022-07-22T00:43:01;13.43;;;6.00;;
14528;SDS011;7351;51.194;4.098;2022-07-22T00:45:28;16.80;;;6.83;;
14528;SDS011;7351;51.194;4.098;2022-07-22T00:47:55;12.53;;;7.83;;
14528;SDS011;7351;51.194;4.098;2022-07-22T00:50:22;13.47;;;7.33;;
14528;SDS011;7351;51.194;4.098;2022-07-22T00:52:50;15.13;;;6.70;;
14528;SDS011;7351;51.194;4.098;2022-07-22T00:55:17;12.53;;;6.47;;
14528;SDS011;7351;51.194;4.098;2022-07-22T00:57:44;12.17;;;7.23;;
14528;SDS011;7351;51.194;4.098;2022-07-22T01:00:14;13.27;;;7.63;;
14528;SDS011;7351;51.194;4.098;2022-07-22T01:02:44;9.57;;;7.53;;
14528;SDS011;7351;51.194;4.098;2022-07-22T01:05:12;10.40;;;6.87;;
14528;SDS011;7351;51.194;4.098;2022-07-22T01:07:39;14.87;;;7.57;;
14528;SDS011;7351;51.194;4.098;2022-07-22T01:10:07;16.20;;;7.17;;
14528;SDS011;7351;51.194;4.098;2022-07-22T01:12:34;9.00;;;6.90;;
14528;SDS011;7351;51.194;4.098;2022-07-22T01:15:01;17.80;;;7.50;;
14528;SDS011;7351;51.194;4.098;2022-07-22T01:17:30;8.83;;;7.33;;
14528;SDS011;7351;51.194;4.098;2022-07-22T01:20:00;15.47;;;7.57;;
14528;SDS011;7351;51.194;4.098;2022-07-22T01:22:29;16.17;;;7.40;;
14528;SDS011;7351;51.194;4.098;2022-07-22T01:24:57;12.50;;;7.30;;
14528;SDS011;7351;51.194;4.098;2022-07-22T01:27:24;9.47;;;7.00;;
14528;SDS011;7351;51.194;4.098;2022-07-22T01:29:51;13.43;;;6.63;;
14528;SDS011;7351;51.194;4.098;2022-07-22T01:32:18;12.53;;;6.27;;
14528;SDS011;7351;51.194;4.098;2022-07-22T01:34:45;12.43;;;6.33;;
14528;SDS011;7351;51.194;4.098;2022-07-22T01:37:13;7.37;;;6.20;;
14528;SDS011;7351;51.194;4.098;2022-07-22T01:39:40;11.03;;;8.03;;
14528;SDS011;7351;51.194;4.098;2022-07-22T01:42:07;9.50;;;8.10;;
14528;SDS011;7351;51.194;4.098;2022-07-22T01:44:34;11.93;;;7.83;;
14528;SDS011;7351;51.194;4.098;2022-07-22T01:47:01;11.70;;;8.60;;
14528;SDS011;7351;51.194;4.098;2022-07-22T01:49:28;11.83;;;7.67;;
14528;SDS011;7351;51.194;4.098;2022-07-22T01:51:55;12.33;;;8.20;;
14528;SDS011;7351;51.194;4.098;2022-07-22T01:54:24;12.20;;;8.43;;
14528;SDS011;7351;51.194;4.098;2022-07-22T01:56:51;11.83;;;7.67;;
14528;SDS011;7351;51.194;4.098;2022-07-22T01:59:18;17.97;;;9.40;;
14528;SDS011;7351;51.194;4.098;2022-07-22T02:01:45;11.53;;;7.93;;
14528;SDS011;7351;51.194;4.098;2022-07-22T02:04:12;10.13;;;8.57;;
14528;SDS011;7351;51.194;4.098;2022-07-22T02:06:39;14.27;;;9.43;;
14528;SDS011;7351;51.194;4.098;2022-07-22T02:09:06;12.53;;;8.37;;
14528;SDS011;7351;51.194;4.098;2022-07-22T02:11:35;10.50;;;9.37;;
14528;SDS011;7351;51.194;4.098;2022-07-22T02:14:02;11.13;;;9.60;;
14528;SDS011;7351;51.194;4.098;2022-07-22T02:16:29;14.60;;;9.00;;
14528;SDS011;7351;51.194;4.098;2022-07-22T02:18:56;15.40;;;9.17;;
14528;SDS011;7351;51.194;4.098;2022-07-22T02:21:23;17.90;;;9.73;;
14528;SDS011;7351;51.194;4.098;2022-07-22T02:23:50;11.07;;;9.13;;
14528;SDS011;7351;51.194;4.098;2022-07-22T02:26:17;14.60;;;9.13;;
14528;SDS011;7351;51.194;4.098;2022-07-22T02:28:46;18.03;;;9.90;;
14528;SDS011;7351;51.194;4.098;2022-07-22T02:31:13;11.80;;;8.80;;
14528;SDS011;7351;51.194;4.098;2022-07-22T02:33:39;13.90;;;10.10;;
14528;SDS011;7351;51.194;4.098;2022-07-22T02:36:07;12.33;;;9.23;;
14528;SDS011;7351;51.194;4.098;2022-07-22T02:38:34;15.93;;;9.10;;
14528;SDS011;7351;51.194;4.098;2022-07-22T02:41:01;10.87;;;8.73;;
14528;SDS011;7351;51.194;4.098;2022-07-22T02:43:28;9.60;;;7.70;;
14528;SDS011;7351;51.194;4.098;2022-07-22T02:45:57;12.50;;;10.20;;
14528;SDS011;7351;51.194;4.098;2022-07-22T02:48:23;12.40;;;8.97;;
14528;SDS011;7351;51.194;4.098;2022-07-22T02:50:50;14.73;;;10.30;;
14528;SDS011;7351;51.194;4.098;2022-07-22T02:53:17;14.23;;;10.23;;
14528;SDS011;7351;51.194;4.098;2022-07-22T02:55:44;13.83;;;9.47;;
14528;SDS011;7351;51.194;4.098;2022-07-22T02:58:11;14.37;;;8.03;;
14528;SDS011;7351;51.194;4.098;2022-07-22T03:00:38;15.03;;;9.87;;
14528;SDS011;7351;51.194;4.098;2022-07-22T03:03:07;14.50;;;8.90;;
14528;SDS011;7351;51.194;4.098;2022-07-22T03:05:34;11.23;;;10.17;;
14528;SDS011;7351;51.194;4.098;2022-07-22T03:08:01;14.37;;;10.13;;
14528;SDS011;7351;51.194;4.098;2022-07-22T03:10:28;13.27;;;10.90;;
14528;SDS011;7351;51.194;4.098;2022-07-22T03:12:55;14.20;;;10.10;;
14528;SDS011;7351;51.194;4.098;2022-07-22T03:15:22;16.20;;;12.57;;
14528;SDS011;7351;51.194;4.098;2022-07-22T03:17:49;11.37;;;9.97;;
14528;SDS011;7351;51.194;4.098;2022-07-22T03:20:17;18.33;;;12.03;;
14528;SDS011;7351;51.194;4.098;2022-07-22T03:22:44;14.03;;;10.43;;
14528;SDS011;7351;51.194;4.098;2022-07-22T03:25:11;15.90;;;11.07;;
14528;SDS011;7351;51.194;4.098;2022-07-22T03:27:38;11.93;;;10.83;;
14528;SDS011;7351;51.194;4.098;2022-07-22T03:30:06;12.77;;;10.27;;
14528;SDS011;7351;51.194;4.098;2022-07-22T03:32:33;18.87;;;10.20;;
14528;SDS011;7351;51.194;4.098;2022-07-22T03:35:00;12.13;;;10.47;;
14528;SDS011;7351;51.194;4.098;2022-07-22T03:37:29;14.57;;;9.87;;
14528;SDS011;7351;51.194;4.098;2022-07-22T03:39:56;12.37;;;11.07;;
14528;SDS011;7351;51.194;4.098;2022-07-22T03:42:23;9.57;;;7.67;;
14528;SDS011;7351;51.194;4.098;2022-07-22T03:44:49;10.03;;;9.00;;
14528;SDS011;7351;51.194;4.098;2022-07-22T03:47:17;10.20;;;8.53;;
14528;SDS011;7351;51.194;4.098;2022-07-22T03:49:44;13.63;;;9.50;;
14528;SDS011;7351;51.194;4.098;2022-07-22T03:52:11;13.77;;;10.10;;
14528;SDS011;7351;51.194;4.098;2022-07-22T03:54:40;11.63;;;10.17;;
14528;SDS011;7351;51.194;4.098;2022-07-22T03:57:08;8.57;;;7.93;;
14528;SDS011;7351;51.194;4.098;2022-07-22T03:59:35;8.20;;;7.47;;
14528;SDS011;7351;51.194;4.098;2022-07-22T04:02:03;9.73;;;8.83;;
14528;SDS011;7351;51.194;4.098;2022-07-22T04:04:30;14.27;;;9.70;;
14528;SDS011;7351;51.194;4.098;2022-07-22T04:06:57;9.97;;;8.90;;
14528;SDS011;7351;51.194;4.098;2022-07-22T04:09:24;14.20;;;10.17;;
14528;SDS011;7351;51.194;4.098;2022-07-22T04:11:53;23.70;;;9.87;;
14528;SDS011;7351;51.194;4.098;2022-07-22T04:14:20;14.40;;;11.13;;
14528;SDS011;7351;51.194;4.098;2022-07-22T04:16:47;9.67;;;8.67;;
14528;SDS011;7351;51.194;4.098;2022-07-22T04:19:14;11.30;;;9.00;;
14528;SDS011;7351;51.194;4.098;2022-07-22T04:21:41;17.27;;;10.27;;
14528;SDS011;7351;51.194;4.098;2022-07-22T04:24:08;19.07;;;9.87;;
14528;SDS011;7351;51.194;4.098;2022-07-22T04:26:36;10.40;;;9.50;;
14528;SDS011;7351;51.194;4.098;2022-07-22T04:29:04;12.10;;;10.17;;
14528;SDS011;7351;51.194;4.098;2022-07-22T04:31:36;16.57;;;10.23;;
14528;SDS011;7351;51.194;4.098;2022-07-22T04:34:03;14.00;;;10.23;;
14528;SDS011;7351;51.194;4.098;2022-07-22T04:36:30;17.20;;;10.60;;
14528;SDS011;7351;51.194;4.098;2022-07-22T04:38:57;15.60;;;11.13;;
14528;SDS011;7351;51.194;4.098;2022-07-22T04:41:24;13.90;;;9.97;;
14528;SDS011;7351;51.194;4.098;2022-07-22T04:43:51;14.83;;;10.97;;
14528;SDS011;7351;51.194;4.098;2022-07-22T04:46:19;10.90;;;9.77;;
14528;SDS011;7351;51.194;4.098;2022-07-22T04:48:46;10.83;;;9.63;;
14528;SDS011;7351;51.194;4.098;2022-07-22T04:51:13;11.00;;;10.13;;
14528;SDS011;7351;51.194;4.098;2022-07-22T04:53:40;12.43;;;9.80;;
14528;SDS011;7351;51.194;4.098;2022-07-22T04:56:07;11.53;;;9.47;;
14528;SDS011;7351;51.194;4.098;2022-07-22T04:58:34;11.63;;;10.63;;
14528;SDS011;7351;51.194;4.098;2022-07-22T05:01:01;14.30;;;10.37;;
14528;SDS011;7351;51.194;4.098;2022-07-22T05:03:29;10.33;;;9.23;;
14528;SDS011;7351;51.194;4.098;2022-07-22T05:05:56;13.40;;;10.63;;
14528;SDS011;7351;51.194;4.098;2022-07-22T05:08:24;15.27;;;10.20;;
14528;SDS011;7351;51.194;4.098;2022-07-22T05:10:51;11.17;;;9.30;;
14528;SDS011;7351;51.194;4.098;2022-07-22T05:13:18;12.73;;;10.00;;
14528;SDS011;7351;51.194;4.098;2022-07-22T05:15:45;13.07;;;9.93;;
14528;SDS011;7351;51.194;4.098;2022-07-22T05:18:11;11.73;;;9.70;;
14528;SDS011;7351;51.194;4.098;2022-07-22T05:20:40;13.07;;;10.77;;
14528;SDS011;7351;51.194;4.098;2022-07-22T05:23:07;15.23;;;10.80;;
14528;SDS011;7351;51.194;4.098;2022-07-22T05:25:34;12.67;;;9.63;;
14528;SDS011;7351;51.194;4.098;2022-07-22T05:28:01;13.73;;;10.60;;
14528;SDS011;7351;51.194;4.098;2022-07-22T05:30:28;9.53;;;8.63;;
14528;SDS011;7351;51.194;4.098;2022-07-22T05:32:55;10.93;;;9.80;;
14528;SDS011;7351;51.194;4.098;2022-07-22T05:35:22;10.10;;;8.10;;
14528;SDS011;7351;51.194;4.098;2022-07-22T05:37:50;11.27;;;9.27;;
14528;SDS011;7351;51.194;4.098;2022-07-22T05:40:17;11.43;;;10.13;;
14528;SDS011;7351;51.194;4.098;2022-07-22T05:42:44;11.20;;;10.13;;
14528;SDS011;7351;51.194;4.098;2022-07-22T05:45:11;15.50;;;11.27;;
14528;SDS011;7351;51.194;4.098;2022-07-22T05:47:38;12.40;;;11.03;;
14528;SDS011;7351;51.194;4.098;2022-07-22T05:50:05;15.33;;;12.60;;
14528;SDS011;7351;51.194;4.098;2022-07-22T05:52:35;13.70;;;10.40;;
14528;SDS011;7351;51.194;4.098;2022-07-22T05:55:04;16.13;;;10.50;;
14528;SDS011;7351;51.194;4.098;2022-07-22T05:57:32;14.43;;;11.63;;
14528;SDS011;7351;51.194;4.098;2022-07-22T05:59:59;18.90;;;13.73;;
14528;SDS011;7351;51.194;4.098;2022-07-22T06:02:26;18.53;;;16.60;;
14528;SDS011;7351;51.194;4.098;2022-07-22T06:04:53;21.20;;;16.53;;
14528;SDS011;7351;51.194;4.098;2022-07-22T06:07:21;16.27;;;13.57;;
14528;SDS011;7351;51.194;4.098;2022-07-22T06:09:48;17.63;;;14.37;;
14528;SDS011;7351;51.194;4.098;2022-07-22T06:12:16;21.00;;;13.73;;
14528;SDS011;7351;51.194;4.098;2022-07-22T06:14:43;21.27;;;13.60;;
14528;SDS011;7351;51.194;4.098;2022-07-22T06:17:11;14.40;;;12.97;;
14528;SDS011;7351;51.194;4.098;2022-07-22T06:19:38;16.07;;;13.23;;
14528;SDS011;7351;51.194;4.098;2022-07-22T06:22:05;14.23;;;12.93;;
14528;SDS011;7351;51.194;4.098;2022-07-22T06:24:32;15.30;;;13.90;;
14528;SDS011;7351;51.194;4.098;2022-07-22T06:26:59;18.33;;;13.63;;
14528;SDS011;7351;51.194;4.098;2022-07-22T06:29:27;13.27;;;12.07;;
14528;SDS011;7351;51.194;4.098;2022-07-22T06:31:54;15.50;;;11.80;;
14528;SDS011;7351;51.194;4.098;2022-07-22T06:34:21;14.30;;;11.90;;
14528;SDS011;7351;51.194;4.098;2022-07-22T06:36:48;19.10;;;12.30;;
14528;SDS011;7351;51.194;4.098;2022-07-22T06:39:15;17.47;;;12.33;;
14528;SDS011;7351;51.194;4.098;2022-07-22T06:41:42;15.67;;;12.40;;
14528;SDS011;7351;51.194;4.098;2022-07-22T06:44:09;15.00;;;12.27;;
14528;SDS011;7351;51.194;4.098;2022-07-22T06:46:37;16.03;;;12.90;;
14528;SDS011;7351;51.194;4.098;2022-07-22T06:49:04;15.13;;;11.60;;
14528;SDS011;7351;51.194;4.098;2022-07-22T06:51:31;21.50;;;11.30;;
14528;SDS011;7351;51.194;4.098;2022-07-22T06:53:59;17.43;;;10.57;;
14528;SDS011;7351;51.194;4.098;2022-07-22T06:56:26;20.23;;;10.67;;
14528;SDS011;7351;51.194;4.098;2022-07-22T06:58:53;11.17;;;10.07;;
14528;SDS011;7351;51.194;4.098;2022-07-22T07:01:20;14.90;;;11.30;;
14528;SDS011;7351;51.194;4.098;2022-07-22T07:03:49;18.80;;;10.67;;
14528;SDS011;7351;51.194;4.098;2022-07-22T07:06:16;18.03;;;11.03;;
14528;SDS011;7351;51.194;4.098;2022-07-22T07:08:43;15.93;;;8.90;;
14528;SDS011;7351;51.194;4.098;2022-07-22T07:11:10;15.83;;;8.40;;
14528;SDS011;7351;51.194;4.098;2022-07-22T07:13:36;13.70;;;9.23;;
14528;SDS011;7351;51.194;4.098;2022-07-22T07:16:04;12.03;;;9.07;;
14528;SDS011;7351;51.194;4.098;2022-07-22T07:18:31;10.97;;;8.27;;
14528;SDS011;7351;51.194;4.098;2022-07-22T07:21:00;15.67;;;8.90;;
14528;SDS011;7351;51.194;4.098;2022-07-22T07:23:27;10.27;;;8.97;;
14528;SDS011;7351;51.194;4.098;2022-07-22T07:25:54;15.40;;;7.80;;
14528;SDS011;7351;51.194;4.098;2022-07-22T07:28:21;13.47;;;6.67;;
14528;SDS011;7351;51.194;4.098;2022-07-22T07:30:49;11.37;;;6.07;;
14528;SDS011;7351;51.194;4.098;2022-07-22T07:33:16;10.20;;;6.07;;
14528;SDS011;7351;51.194;4.098;2022-07-22T07:35:43;12.00;;;5.97;;
14528;SDS011;7351;51.194;4.098;2022-07-22T07:38:11;9.60;;;6.00;;
14528;SDS011;7351;51.194;4.098;2022-07-22T07:40:38;9.37;;;6.40;;
14528;SDS011;7351;51.194;4.098;2022-07-22T07:43:05;11.23;;;5.97;;
14528;SDS011;7351;51.194;4.098;2022-07-22T07:45:32;11.60;;;5.47;;
14528;SDS011;7351;51.194;4.098;2022-07-22T07:48:00;12.03;;;5.53;;
14528;SDS011;7351;51.194;4.098;2022-07-22T07:50:27;14.40;;;5.10;;
14528;SDS011;7351;51.194;4.098;2022-07-22T07:52:55;17.53;;;4.80;;
14528;SDS011;7351;51.194;4.098;2022-07-22T07:55:24;15.40;;;4.10;;
14528;SDS011;7351;51.194;4.098;2022-07-22T07:57:51;9.43;;;3.70;;
14528;SDS011;7351;51.194;4.098;2022-07-22T08:00:19;10.07;;;4.23;;
14528;SDS011;7351;51.194;4.098;2022-07-22T08:02:48;12.10;;;3.73;;
14528;SDS011;7351;51.194;4.098;2022-07-22T08:05:15;11.47;;;3.37;;
14528;SDS011;7351;51.194;4.098;2022-07-22T08:07:44;10.97;;;4.40;;
14528;SDS011;7351;51.194;4.098;2022-07-22T08:10:11;7.23;;;3.40;;
14528;SDS011;7351;51.194;4.098;2022-07-22T08:12:40;7.50;;;2.83;;
14528;SDS011;7351;51.194;4.098;2022-07-22T08:15:07;6.30;;;3.30;;
14528;SDS011;7351;51.194;4.098;2022-07-22T08:17:35;7.47;;;3.10;;
14528;SDS011;7351;51.194;4.098;2022-07-22T08:20:02;9.10;;;3.30;;
14528;SDS011;7351;51.194;4.098;2022-07-22T08:22:30;6.55;;;3.47;;
14528;SDS011;7351;51.194;4.098;2022-07-22T08:24:57;10.07;;;4.03;;
14528;SDS011;7351;51.194;4.098;2022-07-22T08:27:24;7.47;;;3.37;;
14528;SDS011;7351;51.194;4.098;2022-07-22T08:29:53;5.83;;;3.20;;
14528;SDS011;7351;51.194;4.098;2022-07-22T08:32:20;6.57;;;3.10;;
14528;SDS011;7351;51.194;4.098;2022-07-22T08:34:47;5.97;;;2.83;;
14528;SDS011;7351;51.194;4.098;2022-07-22T08:37:14;8.90;;;3.40;;
14528;SDS011;7351;51.194;4.098;2022-07-22T08:39:41;6.70;;;3.70;;
14528;SDS011;7351;51.194;4.098;2022-07-22T08:42:08;12.90;;;4.00;;
14528;SDS011;7351;51.194;4.098;2022-07-22T08:44:35;7.10;;;3.87;;
14528;SDS011;7351;51.194;4.098;2022-07-22T08:47:03;7.55;;;3.38;;
14528;SDS011;7351;51.194;4.098;2022-07-22T08:49:30;6.20;;;3.08;;
14528;SDS011;7351;51.194;4.098;2022-07-22T08:51:58;8.40;;;2.63;;
14528;SDS011;7351;51.194;4.098;2022-07-22T08:54:25;13.85;;;3.45;;
14528;SDS011;7351;51.194;4.098;2022-07-22T08:56:52;7.28;;;2.65;;
14528;SDS011;7351;51.194;4.098;2022-07-22T08:59:19;6.32;;;3.38;;
14528;SDS011;7351;51.194;4.098;2022-07-22T09:02:02;13.10;;;4.22;;
14528;SDS011;7351;51.194;4.098;2022-07-22T09:04:37;10.15;;;4.00;;
14528;SDS011;7351;51.194;4.098;2022-07-22T09:07:22;8.32;;;3.88;;
14528;SDS011;7351;51.194;4.098;2022-07-22T09:09:54;6.40;;;3.90;;
14528;SDS011;7351;51.194;4.098;2022-07-22T09:12:21;5.22;;;3.03;;
14528;SDS011;7351;51.194;4.098;2022-07-22T09:14:49;6.10;;;3.20;;
14528;SDS011;7351;51.194;4.098;2022-07-22T09:17:29;5.80;;;4.18;;
14528;SDS011;7351;51.194;4.098;2022-07-22T09:19:58;8.05;;;3.30;;
14528;SDS011;7351;51.194;4.098;2022-07-22T09:22:33;10.55;;;4.13;;
14528;SDS011;7351;51.194;4.098;2022-07-22T09:27:52;10.07;;;3.90;;
14528;SDS011;7351;51.194;4.098;2022-07-22T09:30:21;8.57;;;3.53;;
14528;SDS011;7351;51.194;4.098;2022-07-22T09:32:51;7.32;;;3.70;;
14528;SDS011;7351;51.194;4.098;2022-07-22T09:35:19;4.55;;;3.50;;
14528;SDS011;7351;51.194;4.098;2022-07-22T09:37:47;9.60;;;4.25;;
14528;SDS011;7351;51.194;4.098;2022-07-22T09:40:16;4.60;;;3.58;;
14528;SDS011;7351;51.194;4.098;2022-07-22T09:42:45;8.55;;;3.42;;
14528;SDS011;7351;51.194;4.098;2022-07-22T09:45:13;12.20;;;4.57;;
14528;SDS011;7351;51.194;4.098;2022-07-22T09:47:41;7.35;;;4.57;;
14528;SDS011;7351;51.194;4.098;2022-07-22T09:50:21;9.18;;;5.35;;
14528;SDS011;7351;51.194;4.098;2022-07-22T09:52:50;7.00;;;4.35;;
14528;SDS011;7351;51.194;4.098;2022-07-22T09:55:18;5.28;;;3.90;;
14528;SDS011;7351;51.194;4.098;2022-07-22T09:57:47;11.68;;;5.50;;
14528;SDS011;7351;51.194;4.098;2022-07-22T10:00:16;8.45;;;5.15;;
14528;SDS011;7351;51.194;4.098;2022-07-22T10:02:45;7.53;;;4.53;;
14528;SDS011;7351;51.194;4.098;2022-07-22T10:05:14;9.52;;;4.53;;
14528;SDS011;7351;51.194;4.098;2022-07-22T10:07:44;6.65;;;5.43;;
14528;SDS011;7351;51.194;4.098;2022-07-22T10:10:13;9.93;;;5.60;;
14528;SDS011;7351;51.194;4.098;2022-07-22T10:12:42;8.32;;;6.47;;
14528;SDS011;7351;51.194;4.098;2022-07-22T10:15:10;9.00;;;6.13;;
14528;SDS011;7351;51.194;4.098;2022-07-22T10:17:38;7.80;;;6.68;;
14528;SDS011;7351;51.194;4.098;2022-07-22T10:20:07;13.40;;;6.50;;
14528;SDS011;7351;51.194;4.098;2022-07-22T10:22:50;6.65;;;6.10;;
14528;SDS011;7351;51.194;4.098;2022-07-22T10:25:20;8.95;;;6.00;;
14528;SDS011;7351;51.194;4.098;2022-07-22T10:27:49;12.15;;;6.18;;
14528;SDS011;7351;51.194;4.098;2022-07-22T10:30:19;8.73;;;6.90;;
14528;SDS011;7351;51.194;4.098;2022-07-22T10:33:06;8.65;;;6.80;;
14528;SDS011;7351;51.194;4.098;2022-07-22T10:35:37;8.85;;;6.10;;
14528;SDS011;7351;51.194;4.098;2022-07-22T10:38:20;9.57;;;6.60;;
14528;SDS011;7351;51.194;4.098;2022-07-22T10:40:48;7.65;;;6.85;;
14528;SDS011;7351;51.194;4.098;2022-07-22T10:43:21;6.15;;;5.50;;
14528;SDS011;7351;51.194;4.098;2022-07-22T10:45:50;7.65;;;5.82;;
14528;SDS011;7351;51.194;4.098;2022-07-22T10:48:19;9.65;;;5.88;;
14528;SDS011;7351;51.194;4.098;2022-07-22T10:50:52;9.88;;;5.85;;
14528;SDS011;7351;51.194;4.098;2022-07-22T10:53:23;10.95;;;6.50;;
14528;SDS011;7351;51.194;4.098;2022-07-22T10:56:06;7.97;;;6.50;;
14528;SDS011;7351;51.194;4.098;2022-07-22T10:58:42;8.15;;;6.38;;
14528;SDS011;7351;51.194;4.098;2022-07-22T11:01:13;7.00;;;5.07;;
14528;SDS011;7351;51.194;4.098;2022-07-22T11:03:42;9.55;;;5.82;;
14528;SDS011;7351;51.194;4.098;2022-07-22T11:06:14;8.25;;;6.25;;
14528;SDS011;7351;51.194;4.098;2022-07-22T11:08:45;12.50;;;7.20;;
14528;SDS011;7351;51.194;4.098;2022-07-22T11:11:13;11.45;;;7.07;;
14528;SDS011;7351;51.194;4.098;2022-07-22T11:13:41;10.95;;;6.38;;
14528;SDS011;7351;51.194;4.098;2022-07-22T11:16:19;9.40;;;7.40;;
14528;SDS011;7351;51.194;4.098;2022-07-22T11:18:49;9.45;;;5.97;;
14528;SDS011;7351;51.194;4.098;2022-07-22T11:21:18;9.50;;;5.85;;
14528;SDS011;7351;51.194;4.098;2022-07-22T11:23:48;9.38;;;5.88;;
14528;SDS011;7351;51.194;4.098;2022-07-22T11:26:17;8.57;;;5.18;;
14528;SDS011;7351;51.194;4.098;2022-07-22T11:28:48;10.02;;;5.25;;
14528;SDS011;7351;51.194;4.098;2022-07-22T11:31:15;9.85;;;6.05;;
14528;SDS011;7351;51.194;4.098;2022-07-22T11:33:44;8.85;;;5.85;;
14528;SDS011;7351;51.194;4.098;2022-07-22T11:36:11;8.80;;;5.82;;
14528;SDS011;7351;51.194;4.098;2022-07-22T11:38:39;9.75;;;5.65;;
14528;SDS011;7351;51.194;4.098;2022-07-22T11:41:11;13.27;;;6.35;;
14528;SDS011;7351;51.194;4.098;2022-07-22T11:43:42;8.18;;;5.80;;
14528;SDS011;7351;51.194;4.098;2022-07-22T11:46:11;10.90;;;7.75;;
14528;SDS011;7351;51.194;4.098;2022-07-22T11:48:38;15.13;;;6.55;;
14528;SDS011;7351;51.194;4.098;2022-07-22T11:51:07;12.15;;;6.75;;
14528;SDS011;7351;51.194;4.098;2022-07-22T11:53:35;9.90;;;6.38;;
14528;SDS011;7351;51.194;4.098;2022-07-22T11:56:03;7.38;;;5.75;;
14528;SDS011;7351;51.194;4.098;2022-07-22T11:58:36;12.02;;;7.60;;
14528;SDS011;7351;51.194;4.098;2022-07-22T12:01:06;6.68;;;5.78;;
14528;SDS011;7351;51.194;4.098;2022-07-22T12:03:33;9.32;;;5.82;;
14528;SDS011;7351;51.194;4.098;2022-07-22T12:06:02;8.18;;;6.63;;
14528;SDS011;7351;51.194;4.098;2022-07-22T12:08:31;11.18;;;7.20;;
14528;SDS011;7351;51.194;4.098;2022-07-22T12:10:59;11.32;;;10.10;;
14528;SDS011;7351;51.194;4.098;2022-07-22T12:13:27;9.38;;;7.95;;
14528;SDS011;7351;51.194;4.098;2022-07-22T12:15:57;10.23;;;7.72;;
14528;SDS011;7351;51.194;4.098;2022-07-22T12:18:25;9.60;;;8.15;;
14528;SDS011;7351;51.194;4.098;2022-07-22T12:20:54;10.02;;;6.72;;
14528;SDS011;7351;51.194;4.098;2022-07-22T12:23:22;7.22;;;6.47;;
14528;SDS011;7351;51.194;4.098;2022-07-22T12:25:55;6.88;;;5.82;;
14528;SDS011;7351;51.194;4.098;2022-07-22T12:28:24;14.65;;;7.70;;
14528;SDS011;7351;51.194;4.098;2022-07-22T12:30:52;8.63;;;6.80;;
14528;SDS011;7351;51.194;4.098;2022-07-22T12:33:22;10.45;;;8.65;;
14528;SDS011;7351;51.194;4.098;2022-07-22T12:35:58;9.95;;;7.63;;
14528;SDS011;7351;51.194;4.098;2022-07-22T12:38:27;7.70;;;6.53;;
14528;SDS011;7351;51.194;4.098;2022-07-22T12:40:54;8.27;;;7.40;;
14528;SDS011;7351;51.194;4.098;2022-07-22T12:43:23;8.30;;;7.43;;
14528;SDS011;7351;51.194;4.098;2022-07-22T12:45:52;8.77;;;6.68;;
14528;SDS011;7351;51.194;4.098;2022-07-22T12:48:19;8.45;;;7.63;;
14528;SDS011;7351;51.194;4.098;2022-07-22T12:50:55;6.78;;;6.22;;
14528;SDS011;7351;51.194;4.098;2022-07-22T12:53:24;11.48;;;7.45;;
14528;SDS011;7351;51.194;4.098;2022-07-22T12:55:54;12.40;;;8.02;;
14528;SDS011;7351;51.194;4.098;2022-07-22T12:58:24;7.93;;;7.13;;
14528;SDS011;7351;51.194;4.098;2022-07-22T13:00:54;11.05;;;9.63;;
14528;SDS011;7351;51.194;4.098;2022-07-22T13:03:23;9.70;;;8.23;;
14528;SDS011;7351;51.194;4.098;2022-07-22T13:05:52;13.57;;;8.77;;
14528;SDS011;7351;51.194;4.098;2022-07-22T13:08:21;8.70;;;7.75;;
14528;SDS011;7351;51.194;4.098;2022-07-22T13:10:49;12.80;;;8.60;;
14528;SDS011;7351;51.194;4.098;2022-07-22T13:13:16;8.52;;;7.55;;
14528;SDS011;7351;51.194;4.098;2022-07-22T13:15:43;11.25;;;8.85;;
14528;SDS011;7351;51.194;4.098;2022-07-22T13:18:10;8.40;;;7.30;;
14528;SDS011;7351;51.194;4.098;2022-07-22T13:20:38;10.93;;;8.02;;
14528;SDS011;7351;51.194;4.098;2022-07-22T13:23:06;10.35;;;7.72;;
14528;SDS011;7351;51.194;4.098;2022-07-22T13:25:33;10.30;;;9.40;;
14528;SDS011;7351;51.194;4.098;2022-07-22T13:28:01;12.30;;;8.23;;
14528;SDS011;7351;51.194;4.098;2022-07-22T13:30:28;8.48;;;7.10;;
14528;SDS011;7351;51.194;4.098;2022-07-22T13:32:55;8.15;;;7.47;;
14528;SDS011;7351;51.194;4.098;2022-07-22T13:35:23;8.20;;;7.50;;
14528;SDS011;7351;51.194;4.098;2022-07-22T13:37:50;9.60;;;8.63;;
14528;SDS011;7351;51.194;4.098;2022-07-22T13:40:18;11.50;;;7.97;;
14528;SDS011;7351;51.194;4.098;2022-07-22T13:42:45;12.60;;;6.82;;
14528;SDS011;7351;51.194;4.098;2022-07-22T13:45:12;12.07;;;7.90;;
14528;SDS011;7351;51.194;4.098;2022-07-22T13:47:39;8.95;;;8.18;;
14528;SDS011;7351;51.194;4.098;2022-07-22T13:50:07;9.57;;;7.45;;
14528;SDS011;7351;51.194;4.098;2022-07-22T13:52:35;10.93;;;8.27;;
14528;SDS011;7351;51.194;4.098;2022-07-22T13:55:02;7.82;;;7.07;;
14528;SDS011;7351;51.194;4.098;2022-07-22T13:57:31;8.13;;;7.43;;
14528;SDS011;7351;51.194;4.098;2022-07-22T13:59:59;11.77;;;6.88;;
14528;SDS011;7351;51.194;4.098;2022-07-22T14:02:26;7.57;;;6.97;;
14528;SDS011;7351;51.194;4.098;2022-07-22T14:04:53;8.02;;;7.00;;
14528;SDS011;7351;51.194;4.098;2022-07-22T14:07:20;11.75;;;10.60;;
14528;SDS011;7351;51.194;4.098;2022-07-22T14:09:47;10.60;;;8.80;;
14528;SDS011;7351;51.194;4.098;2022-07-22T14:12:14;12.75;;;8.52;;
14528;SDS011;7351;51.194;4.098;2022-07-22T14:14:43;15.43;;;6.85;;
14528;SDS011;7351;51.194;4.098;2022-07-22T14:17:10;8.77;;;8.00;;
14528;SDS011;7351;51.194;4.098;2022-07-22T14:19:37;9.32;;;7.75;;
14528;SDS011;7351;51.194;4.098;2022-07-22T14:22:04;9.45;;;8.43;;
14528;SDS011;7351;51.194;4.098;2022-07-22T14:24:31;8.55;;;7.72;;
14528;SDS011;7351;51.194;4.098;2022-07-22T14:26:58;8.88;;;7.13;;
14528;SDS011;7351;51.194;4.098;2022-07-22T14:29:25;9.93;;;8.95;;
14528;SDS011;7351;51.194;4.098;2022-07-22T14:31:53;14.55;;;8.57;;
14528;SDS011;7351;51.194;4.098;2022-07-22T14:34:20;10.70;;;8.95;;
14528;SDS011;7351;51.194;4.098;2022-07-22T14:36:47;11.88;;;10.52;;
14528;SDS011;7351;51.194;4.098;2022-07-22T14:39:15;11.73;;;10.73;;
14528;SDS011;7351;51.194;4.098;2022-07-22T14:41:42;11.10;;;10.20;;
14528;SDS011;7351;51.194;4.098;2022-07-22T14:44:11;17.67;;;10.25;;
14528;SDS011;7351;51.194;4.098;2022-07-22T14:46:38;10.60;;;9.68;;
14528;SDS011;7351;51.194;4.098;2022-07-22T14:49:06;16.83;;;12.50;;
14528;SDS011;7351;51.194;4.098;2022-07-22T14:51:33;12.10;;;10.77;;
14528;SDS011;7351;51.194;4.098;2022-07-22T14:54:00;13.25;;;11.73;;
14528;SDS011;7351;51.194;4.098;2022-07-22T14:56:27;13.07;;;11.77;;
14528;SDS011;7351;51.194;4.098;2022-07-22T14:58:54;12.07;;;10.98;;